KHKS/HKS METAR and TAF weather

Enter ICAO airport designator
Station Type Date Time Source
KHKS METAR 2019/06/16 04:53 UTC NOAA

KHKS 160453Z AUTO 17011KT 10SM CLR 26/22 A2998 RMK AO2 SLP142 T02560222


Station Type Date Time Source
KHKS Decoded METAR 2019/06/16 04:53 UTC NOAA

HAWKINS FIELD, MS, United States (KHKS) 32-20N 090-13W 108M
Jun 16, 2019 - 12:53 AM EDT / 2019.06.16 0453 UTC
Wind: from the S (170 degrees) at 13 MPH (11 KT):0
Visibility: 10 mile(s):0
Sky conditions: clear
Temperature: 78.1 F (25.6 C)
Dew Point: 72.0 F (22.2 C)
Relative Humidity: 81%
Pressure (altimeter): 29.98 in. Hg (1015 hPa)
ob: KHKS 160453Z AUTO 17011KT 10SM CLR 26/22 A2998 RMK AO2 SLP142 T02560222
cycle: 5

Station Type Date Time Source
KHKS TAF 2019/06/15 18:39 UTC NOAA

TAF KHKS 151736Z 1518/1618 17011G17KT P6SM SCT040 BKN050
FM152300 17009KT P6SM SCT250
FM161000 19008KT P6SM OVC025
FM161500 21009KT P6SM BKN050

Example: see airport list